createdAt,value
2019-01-18T00:00:07.971Z,988.06
2019-01-18T00:01:07.958Z,988.02
2019-01-18T00:02:07.949Z,988.07
2019-01-18T00:03:07.938Z,988.03
2019-01-18T00:04:07.928Z,988.02
2019-01-18T00:05:07.913Z,987.96
2019-01-18T00:06:07.903Z,987.98
2019-01-18T00:07:07.891Z,988.01
2019-01-18T00:08:07.878Z,987.99
2019-01-18T00:09:07.868Z,987.95
2019-01-18T00:10:07.860Z,988
2019-01-18T00:11:07.848Z,988.04
2019-01-18T00:12:07.839Z,988.03
2019-01-18T00:13:07.828Z,987.99
2019-01-18T00:14:07.813Z,988.04
2019-01-18T00:15:07.816Z,988
2019-01-18T00:16:07.790Z,988.03
2019-01-18T00:17:07.794Z,988
2019-01-18T00:18:07.770Z,988.01
2019-01-18T00:19:07.758Z,987.94
2019-01-18T00:20:07.758Z,987.96
2019-01-18T00:21:07.739Z,988
2019-01-18T00:22:07.727Z,987.93
2019-01-18T00:23:07.710Z,987.92
2019-01-18T00:24:07.696Z,988.03
2019-01-18T00:25:07.685Z,987.98
2019-01-18T00:26:07.686Z,988.04
2019-01-18T00:27:07.675Z,987.95
2019-01-18T00:28:07.657Z,988.06
2019-01-18T00:29:07.640Z,988.05
2019-01-18T00:30:07.629Z,988.08
2019-01-18T00:31:07.619Z,988.08
2019-01-18T00:32:07.606Z,988.08
2019-01-18T00:33:07.595Z,988.13
2019-01-18T00:34:07.581Z,988.14
2019-01-18T00:35:07.570Z,988.13
2019-01-18T00:36:07.559Z,988.16
2019-01-18T00:37:07.548Z,988.19
2019-01-18T00:38:07.540Z,988.18
2019-01-18T00:39:07.542Z,988.18
2019-01-18T00:40:07.516Z,988.21
2019-01-18T00:41:07.501Z,988.24
2019-01-18T00:42:07.493Z,988.26
2019-01-18T00:43:07.481Z,988.27
2019-01-18T00:44:07.468Z,988.26
2019-01-18T00:45:07.454Z,988.27
2019-01-18T00:46:07.444Z,988.33
2019-01-18T00:47:07.437Z,988.32
2019-01-18T00:48:07.421Z,988.34
2019-01-18T00:49:07.410Z,988.34
2019-01-18T00:50:07.411Z,988.39
2019-01-18T00:51:07.389Z,988.37
2019-01-18T00:52:07.377Z,988.39
2019-01-18T00:53:07.365Z,988.43
2019-01-18T00:54:07.354Z,988.41
2019-01-18T00:55:07.346Z,988.4
2019-01-18T00:56:07.332Z,988.46
2019-01-18T00:57:07.329Z,988.47
2019-01-18T00:58:07.307Z,988.48
2019-01-18T00:59:07.299Z,988.52
2019-01-18T01:00:07.285Z,988.59
2019-01-18T01:01:07.287Z,988.61
2019-01-18T01:02:07.266Z,988.63
2019-01-18T01:03:07.251Z,988.61
2019-01-18T01:04:07.249Z,988.61
2019-01-18T01:05:07.230Z,988.67
2019-01-18T01:06:07.226Z,988.66
2019-01-18T01:07:07.223Z,988.66
2019-01-18T01:08:07.203Z,988.64
2019-01-18T01:09:07.195Z,988.67
2019-01-18T01:10:07.194Z,988.72
2019-01-18T01:11:07.161Z,988.75
2019-01-18T01:12:07.156Z,988.73
2019-01-18T01:13:07.140Z,988.71
2019-01-18T01:14:07.134Z,988.72
2019-01-18T01:15:07.124Z,988.78
2019-01-18T01:16:07.127Z,988.74
2019-01-18T01:17:07.099Z,988.77
2019-01-18T01:18:07.085Z,988.75
2019-01-18T01:19:07.076Z,988.78
2019-01-18T01:20:07.063Z,988.75
2019-01-18T01:21:07.054Z,988.71
2019-01-18T01:22:07.038Z,988.76
2019-01-18T01:23:07.029Z,988.79
2019-01-18T01:24:07.021Z,988.78
2019-01-18T01:25:07.007Z,988.78
2019-01-18T01:26:06.993Z,988.77
2019-01-18T01:27:06.984Z,988.8
2019-01-18T01:28:06.978Z,988.81
2019-01-18T01:29:06.964Z,988.83
2019-01-18T01:30:06.953Z,988.87
2019-01-18T01:31:06.939Z,988.85
2019-01-18T01:32:06.930Z,988.83
2019-01-18T01:33:06.919Z,988.87
2019-01-18T01:34:06.907Z,988.92
2019-01-18T01:35:06.895Z,988.9
2019-01-18T01:36:06.884Z,988.93
2019-01-18T01:37:06.874Z,988.91
2019-01-18T01:38:06.862Z,988.99
2019-01-18T01:39:06.851Z,989.04
2019-01-18T01:40:06.840Z,989.04
2019-01-18T01:41:06.832Z,989.07
2019-01-18T01:42:06.820Z,989.09
2019-01-18T01:43:06.807Z,989.17
2019-01-18T01:44:06.798Z,989.09
2019-01-18T01:45:06.784Z,989.15
2019-01-18T01:46:06.776Z,989.22
2019-01-18T01:47:06.763Z,989.19
2019-01-18T01:48:06.750Z,989.15
2019-01-18T01:49:06.738Z,989.19
2019-01-18T01:50:06.728Z,989.22
2019-01-18T01:51:06.726Z,989.25
2019-01-18T01:52:06.704Z,989.23
2019-01-18T01:53:06.693Z,989.26
2019-01-18T01:54:06.690Z,989.22
2019-01-18T01:55:06.670Z,989.28
2019-01-18T01:56:06.659Z,989.25
2019-01-18T01:57:06.651Z,989.3
2019-01-18T01:58:06.636Z,989.25
2019-01-18T01:59:06.629Z,989.3
2019-01-18T02:00:06.615Z,989.28
2019-01-18T02:01:06.609Z,989.32
2019-01-18T02:02:06.597Z,989.28
2019-01-18T02:03:06.581Z,989.31
2019-01-18T02:04:06.573Z,989.32
2019-01-18T02:05:06.575Z,989.31
2019-01-18T02:06:06.557Z,989.32
2019-01-18T02:07:06.539Z,989.37
2019-01-18T02:08:06.532Z,989.33
2019-01-18T02:09:06.517Z,989.34
2019-01-18T02:10:06.509Z,989.33
2019-01-18T02:11:06.497Z,989.36
2019-01-18T02:12:06.483Z,989.37
2019-01-18T02:13:06.473Z,989.42
2019-01-18T02:14:06.464Z,989.39
2019-01-18T02:15:06.453Z,989.43
2019-01-18T02:16:06.462Z,989.41
2019-01-18T02:17:06.428Z,989.44
2019-01-18T02:18:06.422Z,989.44
2019-01-18T02:19:06.408Z,989.47
2019-01-18T02:20:06.397Z,989.47
2019-01-18T02:21:06.385Z,989.46
2019-01-18T02:22:06.375Z,989.52
2019-01-18T02:23:06.363Z,989.52
2019-01-18T02:24:06.351Z,989.51
2019-01-18T02:25:06.341Z,989.52
2019-01-18T02:26:06.331Z,989.55
2019-01-18T02:27:06.328Z,989.61
2019-01-18T02:28:06.315Z,989.58
2019-01-18T02:29:06.296Z,989.59
2019-01-18T02:30:06.291Z,989.61
2019-01-18T02:31:06.274Z,989.61
2019-01-18T02:32:06.264Z,989.68
2019-01-18T02:33:06.252Z,989.64
2019-01-18T02:34:06.240Z,989.67
2019-01-18T02:35:06.237Z,989.68
2019-01-18T02:36:06.221Z,989.7
2019-01-18T02:37:06.208Z,989.7
2019-01-18T02:38:06.197Z,989.75
2019-01-18T02:39:06.186Z,989.73
2019-01-18T02:40:06.177Z,989.72
2019-01-18T02:41:06.173Z,989.72
2019-01-18T02:42:06.157Z,989.73
2019-01-18T02:43:06.143Z,989.74
2019-01-18T02:44:06.131Z,989.74
2019-01-18T02:45:06.121Z,989.78
2019-01-18T02:46:06.113Z,989.75
2019-01-18T02:47:06.096Z,989.74
2019-01-18T02:48:06.087Z,989.72
2019-01-18T02:49:06.078Z,989.78
2019-01-18T02:50:06.067Z,989.76
2019-01-18T02:51:06.053Z,989.77
2019-01-18T02:52:06.043Z,989.76
2019-01-18T02:53:06.032Z,989.78
2019-01-18T02:54:06.038Z,989.79
2019-01-18T02:55:06.013Z,989.83
2019-01-18T02:56:05.998Z,989.8
2019-01-18T02:57:05.985Z,989.88
2019-01-18T02:58:05.975Z,989.83
2019-01-18T02:59:05.969Z,989.8
2019-01-18T03:00:05.960Z,989.81
2019-01-18T03:01:05.947Z,989.79
2019-01-18T03:02:05.936Z,989.78
2019-01-18T03:03:05.927Z,989.8
2019-01-18T03:04:05.914Z,989.79
2019-01-18T03:05:05.905Z,989.84
2019-01-18T03:06:05.891Z,989.84
2019-01-18T03:07:05.879Z,989.83
2019-01-18T03:08:05.874Z,989.85
2019-01-18T03:09:05.861Z,989.89
2019-01-18T03:10:05.849Z,989.87
2019-01-18T03:11:05.837Z,989.85
2019-01-18T03:12:05.891Z,989.86
2019-01-18T03:13:05.815Z,989.92
2019-01-18T03:14:05.804Z,989.95
2019-01-18T03:15:05.793Z,990.01
2019-01-18T03:16:05.782Z,989.99
2019-01-18T03:17:05.772Z,990.04
2019-01-18T03:18:05.768Z,990.09
2019-01-18T03:19:05.749Z,990.08
2019-01-18T03:20:05.737Z,990.15
2019-01-18T03:21:05.738Z,990.12
2019-01-18T03:22:05.716Z,990.11
2019-01-18T03:23:05.706Z,990.08
2019-01-18T03:24:05.702Z,990.08
2019-01-18T03:25:05.683Z,990.09
2019-01-18T03:26:05.671Z,990.14
2019-01-18T03:27:05.664Z,990.16
2019-01-18T03:28:05.711Z,990.21
2019-01-18T03:29:05.639Z,990.2
2019-01-18T03:30:17.363Z,990.22
2019-01-18T03:31:05.616Z,990.24
2019-01-18T03:32:05.626Z,990.22
2019-01-18T03:33:05.613Z,990.24
2019-01-18T03:34:05.583Z,990.24
2019-01-18T03:35:05.569Z,990.28
2019-01-18T03:36:05.565Z,990.32
2019-01-18T03:37:05.560Z,990.36
2019-01-18T03:38:05.540Z,990.33
2019-01-18T03:39:05.527Z,990.31
2019-01-18T03:40:05.516Z,990.32
2019-01-18T03:41:05.512Z,990.34
2019-01-18T03:42:05.502Z,990.34
2019-01-18T03:43:05.481Z,990.29
2019-01-18T03:44:05.475Z,990.34
2019-01-18T03:45:05.460Z,990.35
2019-01-18T03:46:05.455Z,990.35
2019-01-18T03:47:05.437Z,990.36
2019-01-18T03:48:05.429Z,990.34
2019-01-18T03:49:05.424Z,990.38
2019-01-18T03:50:05.414Z,990.4
2019-01-18T03:51:05.395Z,990.47
2019-01-18T03:52:05.390Z,990.38
2019-01-18T03:53:05.391Z,990.43
2019-01-18T03:54:05.367Z,990.43
2019-01-18T03:55:06.155Z,990.41
2019-01-18T03:56:05.344Z,990.4
2019-01-18T03:57:05.341Z,990.43
2019-01-18T03:58:05.316Z,990.41
2019-01-18T03:59:05.307Z,990.4
2019-01-18T04:00:05.295Z,990.49
2019-01-18T04:01:05.292Z,990.5
2019-01-18T04:02:05.282Z,990.5
2019-01-18T04:03:05.269Z,990.54
2019-01-18T04:04:05.268Z,990.5
2019-01-18T04:05:05.242Z,990.55
2019-01-18T04:06:05.230Z,990.53
2019-01-18T04:07:05.224Z,990.52
2019-01-18T04:08:05.217Z,990.59
2019-01-18T04:09:05.251Z,990.62
2019-01-18T04:10:05.186Z,990.59
2019-01-18T04:11:05.196Z,990.58
2019-01-18T04:12:05.164Z,990.59
2019-01-18T04:13:05.165Z,990.65
2019-01-18T04:14:05.145Z,990.64
2019-01-18T04:15:05.141Z,990.62
2019-01-18T04:16:05.130Z,990.64
2019-01-18T04:17:05.111Z,990.63
2019-01-18T04:18:05.100Z,990.64
2019-01-18T04:19:05.091Z,990.6
2019-01-18T04:20:05.080Z,990.63
2019-01-18T04:21:05.068Z,990.59
2019-01-18T04:22:05.059Z,990.57
2019-01-18T04:23:05.054Z,990.54
2019-01-18T04:24:05.034Z,990.57
2019-01-18T04:25:05.027Z,990.55
2019-01-18T04:26:05.028Z,990.6
2019-01-18T04:27:05.006Z,990.6
2019-01-18T04:28:04.999Z,990.59
2019-01-18T04:29:04.988Z,990.62
2019-01-18T04:30:04.996Z,990.54
2019-01-18T04:31:04.958Z,990.62
2019-01-18T04:32:04.951Z,990.61
2019-01-18T04:33:04.939Z,990.6
2019-01-18T04:34:04.938Z,990.57
2019-01-18T04:35:04.941Z,990.62
2019-01-18T04:36:04.914Z,990.63
2019-01-18T04:37:04.934Z,990.6
2019-01-18T04:38:04.892Z,990.65
2019-01-18T04:39:04.881Z,990.64
2019-01-18T04:40:04.862Z,990.63
2019-01-18T04:41:04.852Z,990.64
2019-01-18T04:42:04.843Z,990.65
2019-01-18T04:43:04.831Z,990.73
2019-01-18T04:44:04.823Z,990.74
2019-01-18T04:45:04.814Z,990.74
2019-01-18T04:46:04.800Z,990.75
2019-01-18T04:47:04.791Z,990.71
2019-01-18T04:48:04.778Z,990.68
2019-01-18T04:49:04.767Z,990.75
2019-01-18T04:50:04.755Z,990.74
2019-01-18T04:51:04.748Z,990.77
2019-01-18T04:52:04.813Z,990.77
2019-01-18T04:53:04.800Z,990.8
2019-01-18T04:54:04.712Z,990.8
2019-01-18T04:55:04.706Z,990.82
2019-01-18T04:56:04.694Z,990.83
2019-01-18T04:57:04.684Z,990.84
2019-01-18T04:58:04.670Z,990.81
2019-01-18T04:59:04.664Z,990.85
2019-01-18T05:00:04.651Z,990.82
2019-01-18T05:01:04.639Z,990.88
2019-01-18T05:02:04.630Z,990.88
2019-01-18T05:03:04.615Z,990.88
2019-01-18T05:04:04.613Z,990.92
2019-01-18T05:05:04.597Z,990.88
2019-01-18T05:06:04.586Z,990.91
2019-01-18T05:07:04.577Z,990.91
2019-01-18T05:08:04.567Z,990.93
2019-01-18T05:09:04.554Z,990.94
2019-01-18T05:10:04.542Z,990.97
2019-01-18T05:11:04.532Z,991
2019-01-18T05:12:04.521Z,991.02
2019-01-18T05:13:04.509Z,990.99
2019-01-18T05:14:04.507Z,991.09
2019-01-18T05:15:04.487Z,991.09
2019-01-18T05:16:04.478Z,991.13
2019-01-18T05:17:04.468Z,991.05
2019-01-18T05:18:04.458Z,991.13
2019-01-18T05:19:04.456Z,991.16
2019-01-18T05:20:04.441Z,991.11
2019-01-18T05:21:04.430Z,991.13
2019-01-18T05:22:04.422Z,991.16
2019-01-18T05:23:04.421Z,991.17
2019-01-18T05:24:04.393Z,991.19
2019-01-18T05:25:04.394Z,991.2
2019-01-18T05:26:04.384Z,991.28
2019-01-18T05:27:04.364Z,991.19
2019-01-18T05:28:04.362Z,991.27
2019-01-18T05:29:04.343Z,991.3
2019-01-18T05:30:04.326Z,991.32
2019-01-18T05:31:04.323Z,991.27
2019-01-18T05:32:04.309Z,991.27
2019-01-18T05:33:04.292Z,991.32
2019-01-18T05:34:04.292Z,991.29
2019-01-18T05:35:04.291Z,991.41
2019-01-18T05:36:04.260Z,991.38
2019-01-18T05:37:04.248Z,991.39
2019-01-18T05:38:04.236Z,991.41
2019-01-18T05:39:04.228Z,991.47
2019-01-18T05:40:04.216Z,991.49
2019-01-18T05:41:04.209Z,991.56
2019-01-18T05:42:04.211Z,991.57
2019-01-18T05:43:04.186Z,991.61
2019-01-18T05:44:04.172Z,991.62
2019-01-18T05:45:04.161Z,991.6
2019-01-18T05:46:04.153Z,991.66
2019-01-18T05:47:04.138Z,991.66
2019-01-18T05:48:04.127Z,991.64
2019-01-18T05:49:04.117Z,991.66
2019-01-18T05:50:04.107Z,991.7
2019-01-18T05:51:04.100Z,991.64
2019-01-18T05:52:04.093Z,991.7
2019-01-18T05:53:04.078Z,991.7
2019-01-18T05:54:04.063Z,991.75
2019-01-18T05:55:04.051Z,991.76
2019-01-18T05:56:04.062Z,991.73
2019-01-18T05:57:04.032Z,991.75
2019-01-18T05:58:04.017Z,991.76
2019-01-18T05:59:04.021Z,991.76
2019-01-18T06:00:04.004Z,991.73
2019-01-18T06:01:03.985Z,991.76
2019-01-18T06:02:03.979Z,991.77
2019-01-18T06:03:03.982Z,991.78
2019-01-18T06:04:03.956Z,991.75
2019-01-18T06:05:03.944Z,991.79
2019-01-18T06:06:03.932Z,991.77
2019-01-18T06:07:03.917Z,991.74
2019-01-18T06:08:03.906Z,991.79
2019-01-18T06:09:03.894Z,991.8
2019-01-18T06:10:03.887Z,991.82
2019-01-18T06:11:03.874Z,991.83
2019-01-18T06:12:03.878Z,991.83
2019-01-18T06:13:03.861Z,991.86
2019-01-18T06:14:03.859Z,991.85
2019-01-18T06:15:03.828Z,991.84
2019-01-18T06:16:03.818Z,991.82
2019-01-18T06:17:03.806Z,991.83
2019-01-18T06:18:03.797Z,991.85
2019-01-18T06:19:03.791Z,991.83
2019-01-18T06:20:03.772Z,991.86
2019-01-18T06:21:03.764Z,991.87
2019-01-18T06:22:03.751Z,991.82
2019-01-18T06:23:03.743Z,991.82
2019-01-18T06:24:03.735Z,991.84
2019-01-18T06:25:03.738Z,991.91
2019-01-18T06:26:03.710Z,991.86
2019-01-18T06:27:03.706Z,991.93
2019-01-18T06:28:03.731Z,991.94
2019-01-18T06:29:03.673Z,992
2019-01-18T06:30:03.667Z,992.01
2019-01-18T06:31:03.654Z,992.03
2019-01-18T06:32:03.662Z,992.07
2019-01-18T06:33:03.631Z,992.08
2019-01-18T06:34:03.627Z,992.07
2019-01-18T06:35:03.608Z,992.13
2019-01-18T06:36:03.634Z,992.12
2019-01-18T06:37:03.594Z,992.16
2019-01-18T06:38:03.580Z,992.19
2019-01-18T06:39:03.570Z,992.25
2019-01-18T06:40:03.552Z,992.27
2019-01-18T06:41:03.544Z,992.33
2019-01-18T06:42:03.536Z,992.35
2019-01-18T06:43:03.527Z,992.34
2019-01-18T06:44:03.521Z,992.35
2019-01-18T06:45:03.500Z,992.43
2019-01-18T06:46:03.492Z,992.44
2019-01-18T06:47:03.476Z,992.42
2019-01-18T06:48:03.465Z,992.46
2019-01-18T06:49:03.473Z,992.48
2019-01-18T06:50:03.461Z,992.46
2019-01-18T06:51:03.433Z,992.47
2019-01-18T06:52:03.421Z,992.43
2019-01-18T06:53:03.410Z,992.51
2019-01-18T06:54:03.396Z,992.45
2019-01-18T06:55:03.393Z,992.47
2019-01-18T06:56:03.378Z,992.45
2019-01-18T06:57:03.365Z,992.49
2019-01-18T06:58:03.356Z,992.44
2019-01-18T06:59:03.343Z,992.48
2019-01-18T07:00:03.335Z,992.51
2019-01-18T07:01:08.424Z,992.44
2019-01-18T07:02:03.312Z,992.46
2019-01-18T07:03:03.308Z,992.43
2019-01-18T07:04:03.288Z,992.47
2019-01-18T07:05:03.276Z,992.43
2019-01-18T07:06:03.268Z,992.46
2019-01-18T07:07:03.306Z,992.51
2019-01-18T07:08:03.539Z,992.47
2019-01-18T07:09:03.232Z,992.51
2019-01-18T07:10:03.219Z,992.49
2019-01-18T07:11:03.220Z,992.57
2019-01-18T07:12:03.208Z,992.56
2019-01-18T07:13:03.192Z,992.55
2019-01-18T07:14:03.177Z,992.61
2019-01-18T07:15:03.165Z,992.6
2019-01-18T07:16:03.158Z,992.63
2019-01-18T07:17:03.143Z,992.65
2019-01-18T07:18:03.140Z,992.67
2019-01-18T07:19:03.125Z,992.67
2019-01-18T07:20:03.570Z,992.72
2019-01-18T07:21:03.106Z,992.71
2019-01-18T07:22:03.094Z,992.81
2019-01-18T07:23:03.081Z,992.74
2019-01-18T07:24:03.070Z,992.76
2019-01-18T07:25:03.059Z,992.83
2019-01-18T07:26:03.050Z,992.82
2019-01-18T07:27:03.828Z,992.79
2019-01-18T07:28:03.020Z,992.84
2019-01-18T07:29:03.016Z,992.86
2019-01-18T07:30:03.024Z,992.87
2019-01-18T07:31:02.983Z,992.86
2019-01-18T07:32:02.979Z,992.84
2019-01-18T07:33:02.960Z,992.86
2019-01-18T07:34:02.949Z,992.86
2019-01-18T07:35:02.938Z,992.88
2019-01-18T07:36:02.938Z,992.91
2019-01-18T07:37:02.943Z,992.91
2019-01-18T07:38:02.907Z,992.92
2019-01-18T07:39:02.908Z,992.88
2019-01-18T07:40:02.896Z,992.91
2019-01-18T07:41:02.882Z,992.92
2019-01-18T07:42:02.861Z,992.98
2019-01-18T07:43:02.852Z,993.03
2019-01-18T07:44:02.840Z,993.02
2019-01-18T07:45:02.830Z,993.02
2019-01-18T07:46:02.819Z,993.06
2019-01-18T07:47:02.807Z,993.03
2019-01-18T07:48:02.815Z,993.03
2019-01-18T07:49:02.785Z,993.02
2019-01-18T07:50:02.775Z,993.09
2019-01-18T07:51:02.779Z,993.07
2019-01-18T07:52:02.777Z,993.09
2019-01-18T07:53:02.743Z,993.08
2019-01-18T07:54:02.733Z,993.03
2019-01-18T07:55:02.719Z,993.06
2019-01-18T07:56:02.708Z,993.05
2019-01-18T07:57:02.700Z,993.06
2019-01-18T07:58:02.685Z,993.1
2019-01-18T07:59:02.683Z,993.11
2019-01-18T08:00:02.662Z,993.11
2019-01-18T08:01:02.650Z,993.12
2019-01-18T08:02:02.643Z,993.09
2019-01-18T08:03:02.638Z,993.11
2019-01-18T08:04:02.622Z,993.22
2019-01-18T08:05:02.606Z,993.24
2019-01-18T08:06:02.602Z,993.24
2019-01-18T08:07:02.586Z,993.21
2019-01-18T08:08:03.144Z,993.28
2019-01-18T08:09:02.588Z,993.26
2019-01-18T08:10:02.551Z,993.28
2019-01-18T08:11:02.539Z,993.24
2019-01-18T08:12:02.529Z,993.24
2019-01-18T08:13:02.520Z,993.32
2019-01-18T08:14:02.506Z,993.31
2019-01-18T08:15:02.495Z,993.29
2019-01-18T08:16:02.496Z,993.33
2019-01-18T08:17:02.476Z,993.34
2019-01-18T08:18:02.471Z,993.38
2019-01-18T08:19:02.452Z,993.34
2019-01-18T08:20:02.441Z,993.36
2019-01-18T08:21:02.431Z,993.38
2019-01-18T08:22:02.420Z,993.4
2019-01-18T08:23:02.413Z,993.4
2019-01-18T08:24:02.400Z,993.43
2019-01-18T08:25:02.388Z,993.46
2019-01-18T08:26:02.409Z,993.49
2019-01-18T08:27:02.364Z,993.51
2019-01-18T08:28:02.362Z,993.52
2019-01-18T08:29:02.356Z,993.52
2019-01-18T08:30:02.340Z,993.53
2019-01-18T08:31:02.328Z,993.49
2019-01-18T08:32:02.317Z,993.54
2019-01-18T08:33:02.317Z,993.51
2019-01-18T08:34:02.295Z,993.52
2019-01-18T08:35:02.405Z,993.49
2019-01-18T08:36:02.287Z,993.56
2019-01-18T08:37:02.256Z,993.55
2019-01-18T08:38:02.251Z,993.54
2019-01-18T08:39:02.238Z,993.59
2019-01-18T08:40:02.224Z,993.56
2019-01-18T08:41:02.217Z,993.61
2019-01-18T08:42:02.207Z,993.62
2019-01-18T08:43:02.199Z,993.64
2019-01-18T08:44:02.184Z,993.65
2019-01-18T08:45:02.177Z,993.68
2019-01-18T08:46:02.165Z,993.66
2019-01-18T08:47:02.167Z,993.63
2019-01-18T08:48:02.146Z,993.66
2019-01-18T08:49:02.134Z,993.65
2019-01-18T08:50:02.126Z,993.69
2019-01-18T08:51:02.122Z,993.65
2019-01-18T08:52:02.104Z,993.7
2019-01-18T08:53:02.092Z,993.66
2019-01-18T08:54:02.096Z,993.71
2019-01-18T08:55:02.076Z,993.68
2019-01-18T08:56:02.070Z,993.69
2019-01-18T08:57:02.051Z,993.73
2019-01-18T08:58:02.054Z,993.68
2019-01-18T08:59:02.034Z,993.76
2019-01-18T09:00:02.023Z,993.79
2019-01-18T09:01:02.017Z,993.79
2019-01-18T09:02:02.013Z,993.8
2019-01-18T09:03:01.990Z,993.82
2019-01-18T09:04:01.983Z,993.81
2019-01-18T09:05:01.973Z,993.83
2019-01-18T09:06:01.962Z,993.81
2019-01-18T09:07:01.951Z,993.82
2019-01-18T09:08:01.944Z,993.82
2019-01-18T09:09:01.932Z,993.86
2019-01-18T09:10:01.925Z,993.85
2019-01-18T09:11:01.919Z,993.82
2019-01-18T09:12:01.901Z,993.86
2019-01-18T09:13:01.897Z,993.89
2019-01-18T09:14:01.885Z,993.93
2019-01-18T09:15:01.879Z,993.89
2019-01-18T09:16:01.870Z,993.93
2019-01-18T09:17:01.852Z,993.89
2019-01-18T09:18:01.849Z,993.94
2019-01-18T09:19:01.834Z,993.94
2019-01-18T09:20:01.823Z,993.93
2019-01-18T09:21:01.816Z,993.93
2019-01-18T09:22:01.805Z,993.93
2019-01-18T09:23:01.803Z,993.94
2019-01-18T09:24:01.787Z,993.95
2019-01-18T09:25:01.789Z,993.97
2019-01-18T09:26:01.767Z,993.92
2019-01-18T09:27:01.803Z,993.97
2019-01-18T09:28:01.746Z,994.05
2019-01-18T09:29:01.734Z,994.01
2019-01-18T09:30:01.725Z,994.04
2019-01-18T09:31:02.065Z,994.05
2019-01-18T09:32:01.715Z,994.11
2019-01-18T09:33:01.693Z,994.04
2019-01-18T09:34:01.688Z,994.06
2019-01-18T09:35:01.683Z,994.12
2019-01-18T09:36:01.685Z,994.15
2019-01-18T09:37:01.663Z,994.18
2019-01-18T09:38:01.649Z,994.22
2019-01-18T09:39:01.649Z,994.17
2019-01-18T09:40:01.637Z,994.17
2019-01-18T09:41:01.641Z,994.18
2019-01-18T09:42:01.620Z,994.2
2019-01-18T09:43:01.601Z,994.2
2019-01-18T09:44:01.587Z,994.17
2019-01-18T09:45:01.582Z,994.26
2019-01-18T09:46:01.567Z,994.24
2019-01-18T09:47:01.559Z,994.27
2019-01-18T09:48:01.550Z,994.28
2019-01-18T09:49:01.554Z,994.27
2019-01-18T09:50:01.548Z,994.25
2019-01-18T09:51:01.518Z,994.29
2019-01-18T09:52:01.529Z,994.3
2019-01-18T09:53:01.498Z,994.26
2019-01-18T09:54:01.493Z,994.26
2019-01-18T09:55:01.480Z,994.27
2019-01-18T09:56:01.476Z,994.28
2019-01-18T09:57:01.454Z,994.27
2019-01-18T09:58:01.449Z,994.29
2019-01-18T09:59:01.441Z,994.3
2019-01-18T10:00:01.435Z,994.27
2019-01-18T10:01:02.865Z,994.3
2019-01-18T10:02:01.420Z,994.31
2019-01-18T10:03:01.420Z,994.31
2019-01-18T10:04:01.384Z,994.33
2019-01-18T10:05:01.378Z,994.31
2019-01-18T10:06:01.364Z,994.35
2019-01-18T10:07:01.357Z,994.34
2019-01-18T10:08:01.353Z,994.32
2019-01-18T10:09:01.343Z,994.33
2019-01-18T10:10:01.326Z,994.32
2019-01-18T10:11:01.314Z,994.34
2019-01-18T10:12:01.303Z,994.3
2019-01-18T10:13:01.299Z,994.28
2019-01-18T10:14:01.302Z,994.3
2019-01-18T10:15:01.278Z,994.35
2019-01-18T10:16:01.269Z,994.34
2019-01-18T10:17:01.251Z,994.32
2019-01-18T10:18:01.240Z,994.35
2019-01-18T10:19:01.239Z,994.33
2019-01-18T10:20:01.219Z,994.38
2019-01-18T10:21:01.219Z,994.33
2019-01-18T10:22:01.200Z,994.33
2019-01-18T10:23:01.189Z,994.31
2019-01-18T10:24:01.178Z,994.28
2019-01-18T10:25:01.180Z,994.24
2019-01-18T10:26:01.180Z,994.25
2019-01-18T10:27:01.148Z,994.25
2019-01-18T10:28:01.139Z,994.2
2019-01-18T10:29:01.129Z,994.22
2019-01-18T10:30:01.120Z,994.22
2019-01-18T10:31:01.109Z,994.21
2019-01-18T10:32:01.100Z,994.25
2019-01-18T10:33:01.112Z,994.19
2019-01-18T10:34:01.089Z,994.21
2019-01-18T10:35:01.068Z,994.22
2019-01-18T10:36:01.074Z,994.17
2019-01-18T10:37:01.048Z,994.18
2019-01-18T10:38:01.041Z,994.2
2019-01-18T10:39:01.033Z,994.19
2019-01-18T10:40:01.024Z,994.16
2019-01-18T10:41:01.012Z,994.2
2019-01-18T10:42:01.003Z,994.18
2019-01-18T10:43:00.991Z,994.18
2019-01-18T10:44:05.899Z,994.17
2019-01-18T10:45:00.969Z,994.16
2019-01-18T10:46:00.961Z,994.16
2019-01-18T10:47:00.963Z,994.14
2019-01-18T10:48:00.943Z,994.14
2019-01-18T10:49:00.941Z,994.17
2019-01-18T10:50:00.925Z,994.13
2019-01-18T10:51:00.917Z,994.11
2019-01-18T10:52:00.902Z,994.1
2019-01-18T10:53:00.896Z,994.1
2019-01-18T10:54:00.883Z,994.12
2019-01-18T10:55:00.875Z,994.08
2019-01-18T10:56:00.864Z,994.09
2019-01-18T10:57:00.856Z,994.09
2019-01-18T10:58:00.865Z,994.09
2019-01-18T10:59:00.848Z,994.08
2019-01-18T11:00:00.832Z,994.08
2019-01-18T11:01:00.816Z,994.13
2019-01-18T11:02:07.142Z,994.06
2019-01-18T11:03:00.798Z,994.08
2019-01-18T11:04:00.789Z,994.09
2019-01-18T11:05:00.788Z,994.11
2019-01-18T11:06:00.780Z,994.1
2019-01-18T11:07:00.779Z,994.09
2019-01-18T11:08:00.752Z,994.07
2019-01-18T11:09:00.997Z,994.08
2019-01-18T11:10:00.734Z,994.1
2019-01-18T11:11:00.722Z,994.03
2019-01-18T11:12:00.714Z,994.06
2019-01-18T11:13:00.703Z,994.06
2019-01-18T11:14:00.696Z,994.07
2019-01-18T11:15:00.686Z,994.03
2019-01-18T11:16:00.687Z,994.03
2019-01-18T11:17:00.675Z,994.08
2019-01-18T11:18:00.659Z,994.07
2019-01-18T11:19:00.651Z,994.05
2019-01-18T11:20:00.659Z,994
2019-01-18T11:21:00.631Z,994.06
2019-01-18T11:22:00.624Z,994.01
2019-01-18T11:23:00.617Z,994.05
2019-01-18T11:24:00.606Z,994.01
2019-01-18T11:25:00.607Z,994.01
2019-01-18T11:26:00.596Z,993.99
2019-01-18T11:27:00.593Z,994.02
2019-01-18T11:28:00.574Z,994.01
2019-01-18T11:29:00.562Z,994.03
2019-01-18T11:30:00.557Z,994.03
2019-01-18T11:31:00.544Z,994.03
2019-01-18T11:32:00.535Z,993.98
2019-01-18T11:33:00.529Z,993.96
2019-01-18T11:34:00.527Z,994.03
2019-01-18T11:35:00.509Z,993.96
2019-01-18T11:36:00.508Z,993.99
2019-01-18T11:37:00.493Z,994
2019-01-18T11:38:00.491Z,994
2019-01-18T11:39:00.476Z,993.98
2019-01-18T11:40:00.473Z,993.99
2019-01-18T11:41:00.458Z,993.99
2019-01-18T11:42:00.451Z,993.98
2019-01-18T11:43:00.452Z,994.02
2019-01-18T11:44:00.436Z,993.99
2019-01-18T11:45:00.427Z,993.99
2019-01-18T11:46:00.418Z,993.95
2019-01-18T11:47:00.411Z,993.95
2019-01-18T11:48:00.404Z,993.95
2019-01-18T11:49:00.411Z,993.96
2019-01-18T11:50:00.390Z,993.91
2019-01-18T11:51:00.382Z,993.93
2019-01-18T11:52:00.369Z,993.95
2019-01-18T11:53:00.360Z,993.96
2019-01-18T11:54:00.351Z,993.93
2019-01-18T11:55:00.365Z,993.95
2019-01-18T11:56:00.344Z,993.91
2019-01-18T11:57:00.337Z,993.92
2019-01-18T11:58:00.326Z,993.87
2019-01-18T11:59:00.309Z,993.89
2019-01-18T12:00:00.304Z,993.92
2019-01-18T12:01:00.307Z,993.87
2019-01-18T12:02:00.290Z,993.89
2019-01-18T12:03:00.290Z,993.87
2019-01-18T12:04:00.267Z,993.87
2019-01-18T12:05:00.257Z,993.86
2019-01-18T12:06:00.254Z,993.88
2019-01-18T12:07:00.243Z,993.85
2019-01-18T12:08:00.235Z,993.85
2019-01-18T12:09:00.223Z,993.85
2019-01-18T12:10:00.299Z,993.88
2019-01-18T12:11:00.207Z,993.81
2019-01-18T12:12:00.197Z,993.81
2019-01-18T12:13:00.189Z,993.82
2019-01-18T12:14:00.184Z,993.81
2019-01-18T12:15:00.184Z,993.78
2019-01-18T12:16:00.169Z,993.75
2019-01-18T12:17:00.163Z,993.76
2019-01-18T12:18:00.149Z,993.72
2019-01-18T12:19:00.151Z,993.7
2019-01-18T12:20:00.188Z,993.72
2019-01-18T12:21:00.153Z,993.74
2019-01-18T12:22:00.114Z,993.73
2019-01-18T12:23:00.112Z,993.71
2019-01-18T12:24:00.096Z,993.71
2019-01-18T12:25:00.102Z,993.69
2019-01-18T12:26:00.082Z,993.67
2019-01-18T12:27:00.071Z,993.63
2019-01-18T12:28:00.065Z,993.65
2019-01-18T12:29:00.056Z,993.62
2019-01-18T12:30:00.050Z,993.61